sensor_id;sensor_type;location;lat;lon;timestamp;temperature;humidity
6018;DHT22;3037;51.068;13.780;2024-01-10T00:01:48;-9.10;80.70
6018;DHT22;3037;51.068;13.780;2024-01-10T00:04:14;-9.10;84.80
6018;DHT22;3037;51.068;13.780;2024-01-10T00:06:42;-9.30;88.10
6018;DHT22;3037;51.068;13.780;2024-01-10T00:09:07;-9.40;95.90
6018;DHT22;3037;51.068;13.780;2024-01-10T00:11:33;-9.60;97.90
6018;DHT22;3037;51.068;13.780;2024-01-10T00:13:58;-9.60;99.20
6018;DHT22;3037;51.068;13.780;2024-01-10T00:16:25;-9.70;99.90
6018;DHT22;3037;51.068;13.780;2024-01-10T00:18:51;-9.70;93.90
6018;DHT22;3037;51.068;13.780;2024-01-10T00:21:17;-9.70;93.30
6018;DHT22;3037;51.068;13.780;2024-01-10T00:23:43;-9.60;88.30
6018;DHT22;3037;51.068;13.780;2024-01-10T00:26:08;-9.60;90.40
6018;DHT22;3037;51.068;13.780;2024-01-10T00:28:33;-9.70;85.90
6018;DHT22;3037;51.068;13.780;2024-01-10T00:30:59;-9.70;87.90
6018;DHT22;3037;51.068;13.780;2024-01-10T00:33:24;-9.60;91.30
6018;DHT22;3037;51.068;13.780;2024-01-10T00:35:50;-9.60;92.70
6018;DHT22;3037;51.068;13.780;2024-01-10T00:38:15;-9.50;95.30
6018;DHT22;3037;51.068;13.780;2024-01-10T00:40:41;-9.50;91.00
6018;DHT22;3037;51.068;13.780;2024-01-10T00:43:06;-9.70;89.90
6018;DHT22;3037;51.068;13.780;2024-01-10T00:45:32;-9.70;90.90
6018;DHT22;3037;51.068;13.780;2024-01-10T00:47:57;-9.70;91.70
6018;DHT22;3037;51.068;13.780;2024-01-10T00:50:23;-9.40;89.70
6018;DHT22;3037;51.068;13.780;2024-01-10T00:52:48;-9.40;84.50
6018;DHT22;3037;51.068;13.780;2024-01-10T00:55:14;-9.40;89.70
6018;DHT22;3037;51.068;13.780;2024-01-10T00:57:39;-9.30;84.00
6018;DHT22;3037;51.068;13.780;2024-01-10T01:00:07;-9.50;85.90
6018;DHT22;3037;51.068;13.780;2024-01-10T01:02:32;-9.50;88.00
6018;DHT22;3037;51.068;13.780;2024-01-10T01:04:58;-9.50;79.90
6018;DHT22;3037;51.068;13.780;2024-01-10T01:07:23;-9.50;83.40
6018;DHT22;3037;51.068;13.780;2024-01-10T01:09:49;-9.60;87.80
6018;DHT22;3037;51.068;13.780;2024-01-10T01:12:15;-9.50;81.90
6018;DHT22;3037;51.068;13.780;2024-01-10T01:14:41;-9.60;82.00
6018;DHT22;3037;51.068;13.780;2024-01-10T01:17:06;-9.70;82.80
6018;DHT22;3037;51.068;13.780;2024-01-10T01:19:32;-9.60;84.50
6018;DHT22;3037;51.068;13.780;2024-01-10T01:21:57;-9.60;80.40
6018;DHT22;3037;51.068;13.780;2024-01-10T01:24:23;-9.80;74.20
6018;DHT22;3037;51.068;13.780;2024-01-10T01:26:48;-9.90;83.70
6018;DHT22;3037;51.068;13.780;2024-01-10T01:29:14;-9.70;83.30
6018;DHT22;3037;51.068;13.780;2024-01-10T01:31:39;-9.80;84.60
6018;DHT22;3037;51.068;13.780;2024-01-10T01:34:04;-10.00;78.20
6018;DHT22;3037;51.068;13.780;2024-01-10T01:36:30;-10.10;81.70
6018;DHT22;3037;51.068;13.780;2024-01-10T01:38:55;-10.00;84.50
6018;DHT22;3037;51.068;13.780;2024-01-10T01:41:21;-10.00;85.50
6018;DHT22;3037;51.068;13.780;2024-01-10T01:43:46;-9.80;86.10
6018;DHT22;3037;51.068;13.780;2024-01-10T01:46:12;-9.90;88.70
6018;DHT22;3037;51.068;13.780;2024-01-10T01:48:38;-9.80;99.90
6018;DHT22;3037;51.068;13.780;2024-01-10T01:51:06;-10.00;95.30
6018;DHT22;3037;51.068;13.780;2024-01-10T01:53:34;-10.10;98.30
6018;DHT22;3037;51.068;13.780;2024-01-10T01:56:02;-10.00;95.80
6018;DHT22;3037;51.068;13.780;2024-01-10T01:58:30;-10.00;92.70
6018;DHT22;3037;51.068;13.780;2024-01-10T02:00:56;-10.10;91.30
6018;DHT22;3037;51.068;13.780;2024-01-10T02:03:22;-10.00;91.40
6018;DHT22;3037;51.068;13.780;2024-01-10T02:05:47;-10.10;93.50
6018;DHT22;3037;51.068;13.780;2024-01-10T02:08:13;-10.10;91.50
6018;DHT22;3037;51.068;13.780;2024-01-10T02:10:39;-10.10;91.30
6018;DHT22;3037;51.068;13.780;2024-01-10T02:13:05;-10.10;90.90
6018;DHT22;3037;51.068;13.780;2024-01-10T02:15:31;-10.10;88.70
6018;DHT22;3037;51.068;13.780;2024-01-10T02:17:57;-10.20;90.60
6018;DHT22;3037;51.068;13.780;2024-01-10T02:20:22;-10.20;86.60
6018;DHT22;3037;51.068;13.780;2024-01-10T02:22:48;-10.30;86.00
6018;DHT22;3037;51.068;13.780;2024-01-10T02:25:15;-10.30;85.60
6018;DHT22;3037;51.068;13.780;2024-01-10T02:27:41;-10.40;85.40
6018;DHT22;3037;51.068;13.780;2024-01-10T02:30:07;-10.40;87.50
6018;DHT22;3037;51.068;13.780;2024-01-10T02:32:34;-10.50;86.50
6018;DHT22;3037;51.068;13.780;2024-01-10T02:35:00;-10.50;87.90
6018;DHT22;3037;51.068;13.780;2024-01-10T02:37:25;-10.40;91.70
6018;DHT22;3037;51.068;13.780;2024-01-10T02:39:51;-10.30;93.00
6018;DHT22;3037;51.068;13.780;2024-01-10T02:42:17;-10.30;92.70
6018;DHT22;3037;51.068;13.780;2024-01-10T02:44:42;-10.20;91.30
6018;DHT22;3037;51.068;13.780;2024-01-10T02:47:08;-10.30;91.90
6018;DHT22;3037;51.068;13.780;2024-01-10T02:49:34;-10.00;89.40
6018;DHT22;3037;51.068;13.780;2024-01-10T02:51:59;-10.30;89.30
6018;DHT22;3037;51.068;13.780;2024-01-10T02:54:25;-10.20;92.20
6018;DHT22;3037;51.068;13.780;2024-01-10T02:56:51;-10.20;86.10
6018;DHT22;3037;51.068;13.780;2024-01-10T02:59:16;-10.40;87.70
6018;DHT22;3037;51.068;13.780;2024-01-10T03:01:42;-10.40;98.10
6018;DHT22;3037;51.068;13.780;2024-01-10T03:04:08;-10.30;99.90
6018;DHT22;3037;51.068;13.780;2024-01-10T03:06:33;-10.30;99.40
6018;DHT22;3037;51.068;13.780;2024-01-10T03:08:58;-10.20;99.20
6018;DHT22;3037;51.068;13.780;2024-01-10T03:11:24;-10.20;93.90
6018;DHT22;3037;51.068;13.780;2024-01-10T03:13:52;-10.30;99.90
6018;DHT22;3037;51.068;13.780;2024-01-10T03:16:17;-10.40;99.90
6018;DHT22;3037;51.068;13.780;2024-01-10T03:18:44;-10.10;99.90
6018;DHT22;3037;51.068;13.780;2024-01-10T03:21:09;-10.20;98.60
6018;DHT22;3037;51.068;13.780;2024-01-10T03:23:34;-10.10;94.70
6018;DHT22;3037;51.068;13.780;2024-01-10T03:26:00;-10.20;90.50
6018;DHT22;3037;51.068;13.780;2024-01-10T03:28:25;-10.20;89.00
6018;DHT22;3037;51.068;13.780;2024-01-10T03:30:51;-10.20;90.80
6018;DHT22;3037;51.068;13.780;2024-01-10T03:33:17;-10.20;86.40
6018;DHT22;3037;51.068;13.780;2024-01-10T03:35:43;-10.40;83.50
6018;DHT22;3037;51.068;13.780;2024-01-10T03:38:08;-10.20;93.60
6018;DHT22;3037;51.068;13.780;2024-01-10T03:40:34;-9.90;94.70
6018;DHT22;3037;51.068;13.780;2024-01-10T03:43:00;-9.90;94.90
6018;DHT22;3037;51.068;13.780;2024-01-10T03:45:26;-9.80;97.90
6018;DHT22;3037;51.068;13.780;2024-01-10T03:47:51;-9.90;99.90
6018;DHT22;3037;51.068;13.780;2024-01-10T03:50:18;-9.80;99.90
6018;DHT22;3037;51.068;13.780;2024-01-10T03:52:44;-9.80;99.90
6018;DHT22;3037;51.068;13.780;2024-01-10T03:55:11;-10.00;96.90
6018;DHT22;3037;51.068;13.780;2024-01-10T03:57:38;-10.00;99.90
6018;DHT22;3037;51.068;13.780;2024-01-10T04:00:05;-9.90;99.90
6018;DHT22;3037;51.068;13.780;2024-01-10T04:02:31;-9.80;98.40
6018;DHT22;3037;51.068;13.780;2024-01-10T04:04:57;-10.00;99.90
6018;DHT22;3037;51.068;13.780;2024-01-10T04:07:23;-10.00;99.90
6018;DHT22;3037;51.068;13.780;2024-01-10T04:09:48;-9.80;99.90
6018;DHT22;3037;51.068;13.780;2024-01-10T04:12:14;-9.60;99.90
6018;DHT22;3037;51.068;13.780;2024-01-10T04:14:39;-9.60;98.30
6018;DHT22;3037;51.068;13.780;2024-01-10T04:17:04;-9.50;96.40
6018;DHT22;3037;51.068;13.780;2024-01-10T04:19:32;-9.40;99.90
6018;DHT22;3037;51.068;13.780;2024-01-10T04:21:58;-9.60;99.90
6018;DHT22;3037;51.068;13.780;2024-01-10T04:24:23;-9.60;99.90
6018;DHT22;3037;51.068;13.780;2024-01-10T04:26:49;-9.70;99.90
6018;DHT22;3037;51.068;13.780;2024-01-10T04:29:14;-9.80;99.90
6018;DHT22;3037;51.068;13.780;2024-01-10T04:31:40;-9.90;99.90
6018;DHT22;3037;51.068;13.780;2024-01-10T04:34:06;-9.80;96.40
6018;DHT22;3037;51.068;13.780;2024-01-10T04:36:31;-10.00;95.90
6018;DHT22;3037;51.068;13.780;2024-01-10T04:38:57;-10.00;98.40
6018;DHT22;3037;51.068;13.780;2024-01-10T04:41:22;-9.80;99.90
6018;DHT22;3037;51.068;13.780;2024-01-10T04:43:48;-9.60;99.90
6018;DHT22;3037;51.068;13.780;2024-01-10T04:46:13;-9.60;90.70
6018;DHT22;3037;51.068;13.780;2024-01-10T04:48:39;-9.80;88.40
6018;DHT22;3037;51.068;13.780;2024-01-10T04:51:05;-9.90;92.10
6018;DHT22;3037;51.068;13.780;2024-01-10T04:53:30;-9.90;89.70
6018;DHT22;3037;51.068;13.780;2024-01-10T04:55:55;-10.10;90.90
6018;DHT22;3037;51.068;13.780;2024-01-10T04:58:21;-10.20;92.50
6018;DHT22;3037;51.068;13.780;2024-01-10T05:00:47;-10.10;92.20
6018;DHT22;3037;51.068;13.780;2024-01-10T05:03:12;-10.10;94.20
6018;DHT22;3037;51.068;13.780;2024-01-10T05:05:38;-9.90;99.90
6018;DHT22;3037;51.068;13.780;2024-01-10T05:08:04;-9.80;96.90
6018;DHT22;3037;51.068;13.780;2024-01-10T05:10:30;-9.90;95.00
6018;DHT22;3037;51.068;13.780;2024-01-10T05:12:55;-10.00;99.20
6018;DHT22;3037;51.068;13.780;2024-01-10T05:15:21;-9.90;99.90
6018;DHT22;3037;51.068;13.780;2024-01-10T05:17:46;-9.70;99.10
6018;DHT22;3037;51.068;13.780;2024-01-10T05:20:12;-9.90;92.50
6018;DHT22;3037;51.068;13.780;2024-01-10T05:22:40;-10.00;86.20
6018;DHT22;3037;51.068;13.780;2024-01-10T05:25:05;-10.20;88.50
6018;DHT22;3037;51.068;13.780;2024-01-10T05:27:31;-10.10;89.20
6018;DHT22;3037;51.068;13.780;2024-01-10T05:29:57;-10.10;87.00
6018;DHT22;3037;51.068;13.780;2024-01-10T05:32:22;-9.90;89.20
6018;DHT22;3037;51.068;13.780;2024-01-10T05:34:48;-10.00;95.70
6018;DHT22;3037;51.068;13.780;2024-01-10T05:37:14;-10.00;91.40
6018;DHT22;3037;51.068;13.780;2024-01-10T05:39:40;-9.90;90.00
6018;DHT22;3037;51.068;13.780;2024-01-10T05:42:05;-10.00;83.90
6018;DHT22;3037;51.068;13.780;2024-01-10T05:44:31;-10.00;81.50
6018;DHT22;3037;51.068;13.780;2024-01-10T05:46:56;-10.20;79.70
6018;DHT22;3037;51.068;13.780;2024-01-10T05:49:25;-10.20;81.40
6018;DHT22;3037;51.068;13.780;2024-01-10T05:51:50;-10.20;80.50
6018;DHT22;3037;51.068;13.780;2024-01-10T05:54:16;-10.30;77.20
6018;DHT22;3037;51.068;13.780;2024-01-10T05:56:43;-10.30;78.50
6018;DHT22;3037;51.068;13.780;2024-01-10T05:59:09;-10.10;86.70
6018;DHT22;3037;51.068;13.780;2024-01-10T06:01:36;-10.10;77.50
6018;DHT22;3037;51.068;13.780;2024-01-10T06:04:04;-9.80;90.30
6018;DHT22;3037;51.068;13.780;2024-01-10T06:06:29;-10.10;74.70
6018;DHT22;3037;51.068;13.780;2024-01-10T06:08:55;-10.10;76.20
6018;DHT22;3037;51.068;13.780;2024-01-10T06:11:20;-10.30;78.10
6018;DHT22;3037;51.068;13.780;2024-01-10T06:13:46;-5.70;99.90
6018;DHT22;3037;51.068;13.780;2024-01-10T06:16:11;-5.00;99.90
6018;DHT22;3037;51.068;13.780;2024-01-10T06:18:38;-5.30;99.90
6018;DHT22;3037;51.068;13.780;2024-01-10T06:21:04;-5.90;99.90
6018;DHT22;3037;51.068;13.780;2024-01-10T06:23:30;-7.20;99.90
6018;DHT22;3037;51.068;13.780;2024-01-10T06:25:55;-9.50;99.90
6018;DHT22;3037;51.068;13.780;2024-01-10T06:28:21;-9.70;99.90
6018;DHT22;3037;51.068;13.780;2024-01-10T06:30:46;-9.90;99.90
6018;DHT22;3037;51.068;13.780;2024-01-10T06:33:12;-9.90;99.90
6018;DHT22;3037;51.068;13.780;2024-01-10T06:35:39;-10.00;99.90
6018;DHT22;3037;51.068;13.780;2024-01-10T06:38:04;-10.00;99.90
6018;DHT22;3037;51.068;13.780;2024-01-10T06:40:30;-10.10;99.90
6018;DHT22;3037;51.068;13.780;2024-01-10T06:42:55;-10.00;99.90
6018;DHT22;3037;51.068;13.780;2024-01-10T06:45:21;-10.00;99.90
6018;DHT22;3037;51.068;13.780;2024-01-10T06:47:47;-9.80;99.90
6018;DHT22;3037;51.068;13.780;2024-01-10T06:50:12;-9.80;99.90
6018;DHT22;3037;51.068;13.780;2024-01-10T06:52:38;-9.70;99.90
6018;DHT22;3037;51.068;13.780;2024-01-10T06:55:04;-9.80;99.90
6018;DHT22;3037;51.068;13.780;2024-01-10T06:57:30;-9.90;99.90
6018;DHT22;3037;51.068;13.780;2024-01-10T06:59:55;-9.90;99.90
6018;DHT22;3037;51.068;13.780;2024-01-10T07:02:22;-9.90;99.90
6018;DHT22;3037;51.068;13.780;2024-01-10T07:04:48;-9.90;99.90
6018;DHT22;3037;51.068;13.780;2024-01-10T07:07:14;-9.50;99.90
6018;DHT22;3037;51.068;13.780;2024-01-10T07:09:40;-9.20;91.00
6018;DHT22;3037;51.068;13.780;2024-01-10T07:12:07;-9.30;89.70
6018;DHT22;3037;51.068;13.780;2024-01-10T07:14:32;-9.60;99.90
6018;DHT22;3037;51.068;13.780;2024-01-10T07:16:58;-9.50;99.90
6018;DHT22;3037;51.068;13.780;2024-01-10T07:19:23;-9.50;99.90
6018;DHT22;3037;51.068;13.780;2024-01-10T07:21:49;-9.50;99.90
6018;DHT22;3037;51.068;13.780;2024-01-10T07:24:15;-9.50;99.90
6018;DHT22;3037;51.068;13.780;2024-01-10T07:26:41;-9.60;99.90
6018;DHT22;3037;51.068;13.780;2024-01-10T07:29:06;-9.50;99.90
6018;DHT22;3037;51.068;13.780;2024-01-10T07:31:36;-9.40;99.90
6018;DHT22;3037;51.068;13.780;2024-01-10T07:34:02;-9.30;99.90
6018;DHT22;3037;51.068;13.780;2024-01-10T07:36:31;-9.00;99.90
6018;DHT22;3037;51.068;13.780;2024-01-10T07:38:59;-8.70;99.90
6018;DHT22;3037;51.068;13.780;2024-01-10T07:41:25;-8.60;99.90
6018;DHT22;3037;51.068;13.780;2024-01-10T07:43:50;-8.40;99.90
6018;DHT22;3037;51.068;13.780;2024-01-10T07:46:15;-8.30;99.90
6018;DHT22;3037;51.068;13.780;2024-01-10T07:48:41;-8.40;99.90
6018;DHT22;3037;51.068;13.780;2024-01-10T07:51:07;-8.30;99.90
6018;DHT22;3037;51.068;13.780;2024-01-10T07:53:33;-8.30;99.90
6018;DHT22;3037;51.068;13.780;2024-01-10T07:55:59;-7.90;99.90
6018;DHT22;3037;51.068;13.780;2024-01-10T07:58:24;-7.80;97.70
6018;DHT22;3037;51.068;13.780;2024-01-10T08:00:49;-7.80;99.10
6018;DHT22;3037;51.068;13.780;2024-01-10T08:03:16;-7.80;99.90
6018;DHT22;3037;51.068;13.780;2024-01-10T08:05:42;-7.70;99.90
6018;DHT22;3037;51.068;13.780;2024-01-10T08:08:08;-7.70;99.90
6018;DHT22;3037;51.068;13.780;2024-01-10T08:10:34;-7.50;99.90
6018;DHT22;3037;51.068;13.780;2024-01-10T08:12:59;-7.20;97.30
6018;DHT22;3037;51.068;13.780;2024-01-10T08:15:25;-4.70;49.70
6018;DHT22;3037;51.068;13.780;2024-01-10T08:17:51;-0.80;1.00
6018;DHT22;3037;51.068;13.780;2024-01-10T08:20:16;1.20;1.00
6018;DHT22;3037;51.068;13.780;2024-01-10T08:22:46;1.20;1.00
6018;DHT22;3037;51.068;13.780;2024-01-10T08:25:12;1.30;1.00
6018;DHT22;3037;51.068;13.780;2024-01-10T08:27:41;2.80;1.00
6018;DHT22;3037;51.068;13.780;2024-01-10T08:30:07;5.00;1.00
6018;DHT22;3037;51.068;13.780;2024-01-10T08:32:35;5.40;1.00
6018;DHT22;3037;51.068;13.780;2024-01-10T08:35:00;4.50;1.00
6018;DHT22;3037;51.068;13.780;2024-01-10T08:37:26;5.00;1.00
6018;DHT22;3037;51.068;13.780;2024-01-10T08:39:51;5.00;1.00
6018;DHT22;3037;51.068;13.780;2024-01-10T08:42:17;4.30;1.00
6018;DHT22;3037;51.068;13.780;2024-01-10T08:44:42;4.10;1.00
6018;DHT22;3037;51.068;13.780;2024-01-10T08:47:08;4.60;1.00
6018;DHT22;3037;51.068;13.780;2024-01-10T08:49:34;5.70;1.00
6018;DHT22;3037;51.068;13.780;2024-01-10T08:51:59;5.80;1.00
6018;DHT22;3037;51.068;13.780;2024-01-10T08:54:25;7.50;1.00
6018;DHT22;3037;51.068;13.780;2024-01-10T08:56:50;5.70;1.00
6018;DHT22;3037;51.068;13.780;2024-01-10T08:59:16;5.60;1.00
6018;DHT22;3037;51.068;13.780;2024-01-10T09:01:41;6.00;1.00
6018;DHT22;3037;51.068;13.780;2024-01-10T09:04:07;5.80;1.00
6018;DHT22;3037;51.068;13.780;2024-01-10T09:06:33;6.00;1.00
6018;DHT22;3037;51.068;13.780;2024-01-10T09:08:59;6.10;1.00
6018;DHT22;3037;51.068;13.780;2024-01-10T09:11:24;6.70;1.00
6018;DHT22;3037;51.068;13.780;2024-01-10T09:13:53;6.50;1.00
6018;DHT22;3037;51.068;13.780;2024-01-10T09:16:18;9.30;1.00
6018;DHT22;3037;51.068;13.780;2024-01-10T09:18:44;9.20;1.00
6018;DHT22;3037;51.068;13.780;2024-01-10T09:21:10;8.50;1.00
6018;DHT22;3037;51.068;13.780;2024-01-10T09:23:35;10.10;1.00
6018;DHT22;3037;51.068;13.780;2024-01-10T09:26:02;9.80;1.00
6018;DHT22;3037;51.068;13.780;2024-01-10T09:28:27;10.70;1.00
6018;DHT22;3037;51.068;13.780;2024-01-10T09:30:53;9.50;1.00
6018;DHT22;3037;51.068;13.780;2024-01-10T09:33:19;10.20;1.00
6018;DHT22;3037;51.068;13.780;2024-01-10T09:35:45;9.70;1.00
6018;DHT22;3037;51.068;13.780;2024-01-10T09:38:10;10.70;1.00
6018;DHT22;3037;51.068;13.780;2024-01-10T09:40:37;10.30;1.00
6018;DHT22;3037;51.068;13.780;2024-01-10T09:43:05;11.30;1.00
6018;DHT22;3037;51.068;13.780;2024-01-10T09:45:31;11.00;1.00
6018;DHT22;3037;51.068;13.780;2024-01-10T09:48:00;11.30;1.00
6018;DHT22;3037;51.068;13.780;2024-01-10T09:50:26;10.60;1.00
6018;DHT22;3037;51.068;13.780;2024-01-10T09:52:53;10.90;1.00
6018;DHT22;3037;51.068;13.780;2024-01-10T09:55:21;9.90;1.00
6018;DHT22;3037;51.068;13.780;2024-01-10T09:57:47;11.10;1.00
6018;DHT22;3037;51.068;13.780;2024-01-10T10:00:15;10.80;1.00
6018;DHT22;3037;51.068;13.780;2024-01-10T10:02:41;10.30;1.00
6018;DHT22;3037;51.068;13.780;2024-01-10T10:05:15;9.80;1.00
6018;DHT22;3037;51.068;13.780;2024-01-10T10:07:45;10.70;1.00
6018;DHT22;3037;51.068;13.780;2024-01-10T10:10:11;11.20;1.00
6018;DHT22;3037;51.068;13.780;2024-01-10T10:12:48;11.80;1.00
6018;DHT22;3037;51.068;13.780;2024-01-10T10:15:18;11.30;1.00
6018;DHT22;3037;51.068;13.780;2024-01-10T10:17:52;9.80;1.00
6018;DHT22;3037;51.068;13.780;2024-01-10T10:20:29;10.50;1.00
6018;DHT22;3037;51.068;13.780;2024-01-10T10:23:05;11.10;1.00
6018;DHT22;3037;51.068;13.780;2024-01-10T10:25:44;10.10;1.00
6018;DHT22;3037;51.068;13.780;2024-01-10T10:28:11;10.40;1.00
6018;DHT22;3037;51.068;13.780;2024-01-10T10:30:36;10.50;1.00
6018;DHT22;3037;51.068;13.780;2024-01-10T10:33:03;9.80;1.00
6018;DHT22;3037;51.068;13.780;2024-01-10T10:35:28;10.80;1.00
6018;DHT22;3037;51.068;13.780;2024-01-10T10:37:54;10.80;1.00
6018;DHT22;3037;51.068;13.780;2024-01-10T10:40:20;12.30;1.00
6018;DHT22;3037;51.068;13.780;2024-01-10T10:42:48;13.10;1.00
6018;DHT22;3037;51.068;13.780;2024-01-10T10:45:16;12.10;1.00
6018;DHT22;3037;51.068;13.780;2024-01-10T10:47:46;11.90;1.00
6018;DHT22;3037;51.068;13.780;2024-01-10T10:50:22;12.50;1.00
6018;DHT22;3037;51.068;13.780;2024-01-10T10:52:49;12.30;1.00
6018;DHT22;3037;51.068;13.780;2024-01-10T10:55:16;12.50;1.00
6018;DHT22;3037;51.068;13.780;2024-01-10T10:57:45;12.60;1.00
6018;DHT22;3037;51.068;13.780;2024-01-10T11:00:20;12.80;1.00
6018;DHT22;3037;51.068;13.780;2024-01-10T11:02:46;12.60;1.00
6018;DHT22;3037;51.068;13.780;2024-01-10T11:05:12;12.30;1.00
6018;DHT22;3037;51.068;13.780;2024-01-10T11:07:42;12.40;1.00
6018;DHT22;3037;51.068;13.780;2024-01-10T11:10:14;13.60;1.00
6018;DHT22;3037;51.068;13.780;2024-01-10T11:18:49;11.50;1.00
6018;DHT22;3037;51.068;13.780;2024-01-10T11:23:55;11.70;1.00
6018;DHT22;3037;51.068;13.780;2024-01-10T11:26:21;10.60;1.00
6018;DHT22;3037;51.068;13.780;2024-01-10T11:28:47;10.90;1.00
6018;DHT22;3037;51.068;13.780;2024-01-10T11:31:14;11.10;1.00
6018;DHT22;3037;51.068;13.780;2024-01-10T11:33:41;11.00;1.00
6018;DHT22;3037;51.068;13.780;2024-01-10T11:36:27;9.60;1.00
6018;DHT22;3037;51.068;13.780;2024-01-10T11:38:58;8.80;1.00
6018;DHT22;3037;51.068;13.780;2024-01-10T11:46:47;7.10;1.00
6018;DHT22;3037;51.068;13.780;2024-01-10T11:49:14;7.20;1.00
6018;DHT22;3037;51.068;13.780;2024-01-10T11:51:44;7.30;1.00
6018;DHT22;3037;51.068;13.780;2024-01-10T11:54:10;6.80;1.00
6018;DHT22;3037;51.068;13.780;2024-01-10T11:56:41;6.80;1.00
6018;DHT22;3037;51.068;13.780;2024-01-10T11:59:13;6.70;1.00
6018;DHT22;3037;51.068;13.780;2024-01-10T12:01:41;6.10;1.00
6018;DHT22;3037;51.068;13.780;2024-01-10T12:04:08;6.10;1.00
6018;DHT22;3037;51.068;13.780;2024-01-10T12:06:35;5.60;1.00
6018;DHT22;3037;51.068;13.780;2024-01-10T12:09:04;5.10;1.00
6018;DHT22;3037;51.068;13.780;2024-01-10T12:11:36;4.80;1.00
6018;DHT22;3037;51.068;13.780;2024-01-10T12:14:04;4.80;1.00
6018;DHT22;3037;51.068;13.780;2024-01-10T12:16:29;4.40;1.00
6018;DHT22;3037;51.068;13.780;2024-01-10T12:18:55;4.20;1.00
6018;DHT22;3037;51.068;13.780;2024-01-10T12:21:20;4.40;1.00
6018;DHT22;3037;51.068;13.780;2024-01-10T12:23:47;4.50;1.00
6018;DHT22;3037;51.068;13.780;2024-01-10T12:26:14;4.50;1.00
6018;DHT22;3037;51.068;13.780;2024-01-10T12:28:40;4.20;1.00
6018;DHT22;3037;51.068;13.780;2024-01-10T12:31:06;4.30;1.00
6018;DHT22;3037;51.068;13.780;2024-01-10T12:33:36;4.70;1.00
6018;DHT22;3037;51.068;13.780;2024-01-10T12:36:11;4.40;1.00
6018;DHT22;3037;51.068;13.780;2024-01-10T12:38:40;4.40;1.00
6018;DHT22;3037;51.068;13.780;2024-01-10T12:41:06;4.30;1.00
6018;DHT22;3037;51.068;13.780;2024-01-10T12:43:34;4.60;1.00
6018;DHT22;3037;51.068;13.780;2024-01-10T12:46:07;4.40;1.00
6018;DHT22;3037;51.068;13.780;2024-01-10T12:48:37;5.00;1.00
6018;DHT22;3037;51.068;13.780;2024-01-10T12:51:04;4.70;1.00
6018;DHT22;3037;51.068;13.780;2024-01-10T12:53:34;4.50;1.00
6018;DHT22;3037;51.068;13.780;2024-01-10T12:56:01;4.70;1.00
6018;DHT22;3037;51.068;13.780;2024-01-10T12:58:27;4.80;1.00
6018;DHT22;3037;51.068;13.780;2024-01-10T13:00:53;4.60;1.00
6018;DHT22;3037;51.068;13.780;2024-01-10T13:03:19;4.40;1.00
6018;DHT22;3037;51.068;13.780;2024-01-10T13:05:44;4.60;1.00
6018;DHT22;3037;51.068;13.780;2024-01-10T13:08:10;4.60;1.00
6018;DHT22;3037;51.068;13.780;2024-01-10T13:10:38;4.60;1.00
6018;DHT22;3037;51.068;13.780;2024-01-10T13:13:03;4.70;1.00
6018;DHT22;3037;51.068;13.780;2024-01-10T13:15:29;4.30;1.00
6018;DHT22;3037;51.068;13.780;2024-01-10T13:17:55;4.30;1.00
6018;DHT22;3037;51.068;13.780;2024-01-10T13:20:20;4.30;1.00
6018;DHT22;3037;51.068;13.780;2024-01-10T13:22:46;4.40;1.00
6018;DHT22;3037;51.068;13.780;2024-01-10T13:25:11;4.10;1.00
6018;DHT22;3037;51.068;13.780;2024-01-10T13:27:38;4.10;1.00
6018;DHT22;3037;51.068;13.780;2024-01-10T13:30:04;4.10;1.00
6018;DHT22;3037;51.068;13.780;2024-01-10T13:32:31;3.80;1.00
6018;DHT22;3037;51.068;13.780;2024-01-10T13:34:56;3.90;1.00
6018;DHT22;3037;51.068;13.780;2024-01-10T13:37:23;3.80;1.00
6018;DHT22;3037;51.068;13.780;2024-01-10T13:39:48;3.80;1.00
6018;DHT22;3037;51.068;13.780;2024-01-10T13:42:14;3.80;1.00
6018;DHT22;3037;51.068;13.780;2024-01-10T13:44:40;3.90;1.00
6018;DHT22;3037;51.068;13.780;2024-01-10T13:47:05;3.60;1.00
6018;DHT22;3037;51.068;13.780;2024-01-10T13:49:31;3.60;1.00
6018;DHT22;3037;51.068;13.780;2024-01-10T13:51:57;3.60;1.00
6018;DHT22;3037;51.068;13.780;2024-01-10T13:54:22;3.70;1.00
6018;DHT22;3037;51.068;13.780;2024-01-10T13:56:48;3.70;1.00
6018;DHT22;3037;51.068;13.780;2024-01-10T13:59:13;3.70;1.00
6018;DHT22;3037;51.068;13.780;2024-01-10T14:01:39;3.50;1.00
6018;DHT22;3037;51.068;13.780;2024-01-10T14:04:05;3.50;1.00
6018;DHT22;3037;51.068;13.780;2024-01-10T14:06:31;3.30;1.00
6018;DHT22;3037;51.068;13.780;2024-01-10T14:08:57;3.50;1.00
6018;DHT22;3037;51.068;13.780;2024-01-10T14:11:23;3.30;1.00
6018;DHT22;3037;51.068;13.780;2024-01-10T14:13:49;3.20;1.00
6018;DHT22;3037;51.068;13.780;2024-01-10T14:16:15;3.10;1.00
6018;DHT22;3037;51.068;13.780;2024-01-10T14:18:40;3.30;1.00
6018;DHT22;3037;51.068;13.780;2024-01-10T14:21:06;3.30;1.00
6018;DHT22;3037;51.068;13.780;2024-01-10T14:23:32;3.40;1.00
6018;DHT22;3037;51.068;13.780;2024-01-10T14:25:59;3.70;1.00
6018;DHT22;3037;51.068;13.780;2024-01-10T14:28:24;3.60;1.00
6018;DHT22;3037;51.068;13.780;2024-01-10T14:30:50;3.50;1.00
6018;DHT22;3037;51.068;13.780;2024-01-10T14:33:15;3.30;1.00
6018;DHT22;3037;51.068;13.780;2024-01-10T14:35:41;3.20;1.00
6018;DHT22;3037;51.068;13.780;2024-01-10T14:38:06;3.40;1.00
6018;DHT22;3037;51.068;13.780;2024-01-10T14:40:33;3.30;1.00
6018;DHT22;3037;51.068;13.780;2024-01-10T14:42:58;3.20;1.00
6018;DHT22;3037;51.068;13.780;2024-01-10T14:45:24;3.30;1.00
6018;DHT22;3037;51.068;13.780;2024-01-10T14:47:50;3.30;1.00
6018;DHT22;3037;51.068;13.780;2024-01-10T14:50:15;2.80;1.00
6018;DHT22;3037;51.068;13.780;2024-01-10T14:52:41;2.70;1.00
6018;DHT22;3037;51.068;13.780;2024-01-10T14:55:07;2.70;1.00
6018;DHT22;3037;51.068;13.780;2024-01-10T14:57:33;2.50;1.00
6018;DHT22;3037;51.068;13.780;2024-01-10T14:59:59;2.40;1.00
6018;DHT22;3037;51.068;13.780;2024-01-10T15:02:25;2.10;1.00
6018;DHT22;3037;51.068;13.780;2024-01-10T15:04:50;2.20;1.00
6018;DHT22;3037;51.068;13.780;2024-01-10T15:07:16;2.20;1.00
6018;DHT22;3037;51.068;13.780;2024-01-10T15:09:43;2.10;1.00
6018;DHT22;3037;51.068;13.780;2024-01-10T15:12:08;2.10;1.00
6018;DHT22;3037;51.068;13.780;2024-01-10T15:14:35;1.80;1.00
6018;DHT22;3037;51.068;13.780;2024-01-10T15:17:04;1.80;1.00
6018;DHT22;3037;51.068;13.780;2024-01-10T15:19:33;1.80;1.00
6018;DHT22;3037;51.068;13.780;2024-01-10T15:21:59;1.80;1.00
6018;DHT22;3037;51.068;13.780;2024-01-10T15:24:25;1.90;1.00
6018;DHT22;3037;51.068;13.780;2024-01-10T15:26:50;1.80;1.00
6018;DHT22;3037;51.068;13.780;2024-01-10T15:29:17;1.70;1.00
6018;DHT22;3037;51.068;13.780;2024-01-10T15:31:43;1.60;1.00
6018;DHT22;3037;51.068;13.780;2024-01-10T15:34:08;1.50;1.00
6018;DHT22;3037;51.068;13.780;2024-01-10T15:36:40;1.30;1.00
6018;DHT22;3037;51.068;13.780;2024-01-10T15:39:06;1.30;1.00
6018;DHT22;3037;51.068;13.780;2024-01-10T15:41:31;1.40;1.00
6018;DHT22;3037;51.068;13.780;2024-01-10T15:43:57;1.20;1.00
6018;DHT22;3037;51.068;13.780;2024-01-10T15:46:22;1.20;1.00
6018;DHT22;3037;51.068;13.780;2024-01-10T15:48:48;0.80;1.00
6018;DHT22;3037;51.068;13.780;2024-01-10T15:51:13;0.60;1.00
6018;DHT22;3037;51.068;13.780;2024-01-10T15:53:40;0.30;1.00
6018;DHT22;3037;51.068;13.780;2024-01-10T15:56:05;0.30;1.00
6018;DHT22;3037;51.068;13.780;2024-01-10T15:58:31;0.20;1.00
6018;DHT22;3037;51.068;13.780;2024-01-10T16:00:58;0.10;1.00
6018;DHT22;3037;51.068;13.780;2024-01-10T16:03:24;0.10;1.00